createdAt,value
2022-12-07T00:01:08.318Z,15.50
2022-12-07T00:03:36.735Z,15.50
2022-12-07T00:06:06.280Z,15.50
2022-12-07T00:08:35.108Z,15.50
2022-12-07T00:11:04.288Z,15.50
2022-12-07T00:13:32.381Z,15.60
2022-12-07T00:16:02.867Z,15.50
2022-12-07T00:18:32.181Z,15.50
2022-12-07T00:21:03.609Z,15.50
2022-12-07T00:23:31.960Z,15.50
2022-12-07T00:26:06.085Z,15.50
2022-12-07T00:28:34.510Z,15.50
2022-12-07T00:31:04.649Z,15.50
2022-12-07T00:33:34.256Z,15.50
2022-12-07T00:36:02.699Z,15.50
2022-12-07T00:38:32.620Z,15.50
2022-12-07T00:41:02.724Z,15.50
2022-12-07T00:43:30.917Z,15.50
2022-12-07T00:45:59.312Z,15.50
2022-12-07T00:48:27.537Z,15.50
2022-12-07T00:50:56.838Z,15.50
2022-12-07T00:53:25.162Z,15.50
2022-12-07T00:55:53.476Z,15.50
2022-12-07T00:58:21.464Z,15.50
2022-12-07T01:00:49.288Z,15.50
2022-12-07T01:03:18.293Z,15.50
2022-12-07T01:05:52.313Z,15.50
2022-12-07T01:08:21.630Z,15.50
2022-12-07T01:10:49.614Z,15.50
2022-12-07T01:13:18.271Z,15.50
2022-12-07T01:15:46.844Z,15.50
2022-12-07T01:18:14.706Z,15.50
2022-12-07T01:20:42.502Z,15.50
2022-12-07T01:23:10.434Z,15.50
2022-12-07T01:25:39.587Z,15.50
2022-12-07T01:28:07.376Z,15.50
2022-12-07T01:30:35.223Z,15.50
2022-12-07T01:33:03.077Z,15.50
2022-12-07T01:35:30.879Z,15.50
2022-12-07T01:37:58.660Z,15.50
2022-12-07T01:40:26.499Z,15.50
2022-12-07T01:42:55.653Z,15.50
2022-12-07T01:45:39.500Z,15.50
2022-12-07T01:48:08.908Z,15.50
2022-12-07T01:50:37.657Z,15.50
2022-12-07T01:53:08.665Z,15.50
2022-12-07T01:55:39.497Z,15.50
2022-12-07T01:58:09.522Z,15.50
2022-12-07T02:00:37.474Z,15.50
2022-12-07T02:03:09.211Z,15.50
2022-12-07T02:05:40.337Z,15.50
2022-12-07T02:08:09.251Z,15.40
2022-12-07T02:10:37.213Z,15.50
2022-12-07T02:13:11.294Z,15.40
2022-12-07T02:15:49.318Z,15.50
2022-12-07T02:18:25.475Z,15.50
2022-12-07T02:21:01.544Z,15.50
2022-12-07T02:23:43.106Z,15.50
2022-12-07T02:26:44.153Z,15.50
2022-12-07T02:29:18.286Z,15.40
2022-12-07T02:31:49.276Z,15.50
2022-12-07T02:34:23.851Z,15.40
2022-12-07T02:36:55.957Z,15.50
2022-12-07T02:39:33.151Z,15.40
2022-12-07T02:42:05.109Z,15.40
2022-12-07T02:44:35.428Z,15.40
2022-12-07T02:47:05.244Z,15.40
2022-12-07T02:49:33.814Z,15.40
2022-12-07T02:52:01.994Z,15.40
2022-12-07T02:54:29.960Z,15.50
2022-12-07T02:57:06.077Z,15.40
2022-12-07T02:59:46.211Z,15.40
2022-12-07T03:02:22.504Z,15.50
2022-12-07T03:04:59.986Z,15.40
2022-12-07T03:07:35.673Z,15.50
2022-12-07T03:10:09.291Z,15.40
2022-12-07T03:12:46.025Z,15.40
2022-12-07T03:15:21.025Z,15.40
2022-12-07T03:17:50.115Z,15.40
2022-12-07T03:20:21.022Z,15.40
2022-12-07T03:22:49.509Z,15.40
2022-12-07T03:25:19.290Z,15.40
2022-12-07T03:27:52.983Z,15.40
2022-12-07T03:30:24.997Z,15.40
2022-12-07T03:32:58.860Z,15.40
2022-12-07T03:35:31.233Z,15.40
2022-12-07T03:38:02.377Z,15.40
2022-12-07T03:40:35.072Z,15.40
2022-12-07T03:43:04.365Z,15.40
2022-12-07T03:45:38.971Z,15.40
2022-12-07T03:48:12.881Z,15.40
2022-12-07T03:50:45.201Z,15.40
2022-12-07T03:53:17.740Z,15.40
2022-12-07T03:55:47.555Z,15.40
2022-12-07T03:58:20.187Z,15.40
2022-12-07T04:00:50.346Z,15.40
2022-12-07T04:03:18.293Z,15.40
2022-12-07T04:05:46.707Z,15.40
2022-12-07T04:08:14.578Z,15.40
2022-12-07T04:10:42.463Z,15.40
2022-12-07T04:13:10.297Z,15.40
2022-12-07T04:15:38.134Z,15.40
2022-12-07T04:18:07.304Z,15.40
2022-12-07T04:20:35.148Z,15.40
2022-12-07T04:23:02.957Z,15.40
2022-12-07T04:25:30.910Z,15.40
2022-12-07T04:27:58.806Z,15.40
2022-12-07T04:30:26.871Z,15.40
2022-12-07T04:32:54.796Z,15.40
2022-12-07T04:35:23.952Z,15.30
2022-12-07T04:37:51.845Z,15.30
2022-12-07T04:40:20.299Z,15.40
2022-12-07T04:42:48.375Z,15.30
2022-12-07T04:45:16.204Z,15.30
2022-12-07T04:47:46.329Z,15.30
2022-12-07T04:50:14.659Z,15.30
2022-12-07T04:52:44.057Z,15.30
2022-12-07T04:55:11.972Z,15.30
2022-12-07T04:57:39.837Z,15.30
2022-12-07T05:00:09.038Z,15.30
2022-12-07T05:02:37.184Z,15.30
2022-12-07T05:05:05.580Z,15.30
2022-12-07T05:07:33.466Z,15.30
2022-12-07T05:10:02.946Z,15.20
2022-12-07T05:12:30.969Z,15.30
2022-12-07T05:14:58.789Z,15.30
2022-12-07T05:17:26.610Z,15.30
2022-12-07T05:19:54.459Z,15.40
2022-12-07T05:22:22.261Z,15.40
2022-12-07T05:24:50.100Z,15.40
2022-12-07T05:27:19.264Z,15.40
2022-12-07T05:29:47.114Z,15.40
2022-12-07T05:32:14.977Z,15.40
2022-12-07T05:34:43.862Z,15.30
2022-12-07T05:37:11.689Z,15.30
2022-12-07T05:39:41.762Z,15.40
2022-12-07T05:42:14.004Z,15.40
2022-12-07T05:44:44.861Z,15.30
2022-12-07T05:47:13.253Z,15.30
2022-12-07T05:49:41.165Z,15.40
2022-12-07T05:52:09.594Z,15.30
2022-12-07T05:54:37.433Z,15.30
2022-12-07T05:57:05.318Z,15.30
2022-12-07T05:59:32.225Z,15.30
2022-12-07T06:02:03.753Z,15.30
2022-12-07T06:04:32.936Z,15.30
2022-12-07T06:07:00.768Z,15.30
2022-12-07T06:09:30.333Z,15.30
2022-12-07T06:12:16.116Z,15.30
2022-12-07T06:14:44.357Z,15.30
2022-12-07T06:17:14.400Z,15.30
2022-12-07T06:19:42.469Z,15.30
2022-12-07T06:22:12.384Z,15.40
2022-12-07T06:24:40.791Z,15.30
2022-12-07T06:27:08.662Z,15.40
2022-12-07T06:29:36.649Z,15.40
2022-12-07T06:32:04.599Z,15.30
2022-12-07T06:34:34.385Z,15.40
2022-12-07T06:37:02.224Z,15.30
2022-12-07T06:39:31.272Z,15.40
2022-12-07T06:41:59.523Z,15.40
2022-12-07T06:44:27.758Z,15.40
2022-12-07T06:47:12.242Z,15.40
2022-12-07T06:49:44.849Z,15.40
2022-12-07T06:52:12.633Z,15.40
2022-12-07T06:54:40.463Z,15.40
2022-12-07T06:57:08.267Z,15.40
2022-12-07T06:59:36.081Z,15.40
2022-12-07T07:02:03.928Z,15.40
2022-12-07T07:04:31.942Z,15.40
2022-12-07T07:07:01.094Z,15.40
2022-12-07T07:09:29.009Z,15.40
2022-12-07T07:11:56.805Z,15.40
2022-12-07T07:14:24.665Z,15.40
2022-12-07T07:16:52.554Z,15.40
2022-12-07T07:19:20.428Z,15.40
2022-12-07T07:21:48.246Z,15.40
2022-12-07T07:24:17.613Z,15.40
2022-12-07T07:26:45.523Z,15.40
2022-12-07T07:29:13.481Z,15.30
2022-12-07T07:31:41.320Z,15.40
2022-12-07T07:34:09.125Z,15.40
2022-12-07T07:36:36.977Z,15.40
2022-12-07T07:39:05.795Z,15.40
2022-12-07T07:41:34.972Z,15.40
2022-12-07T07:44:04.058Z,15.40
2022-12-07T07:46:34.088Z,15.40
2022-12-07T07:49:02.036Z,15.40
2022-12-07T07:51:29.829Z,15.40
2022-12-07T07:53:57.665Z,15.40
2022-12-07T07:56:25.487Z,15.40
2022-12-07T07:58:55.658Z,15.40
2022-12-07T08:01:23.607Z,15.40
2022-12-07T08:03:51.685Z,15.40
2022-12-07T08:06:19.500Z,15.40
2022-12-07T08:08:47.280Z,15.50
2022-12-07T08:11:15.185Z,15.50
2022-12-07T08:13:42.995Z,15.50
2022-12-07T08:16:12.544Z,15.50
2022-12-07T08:18:42.093Z,15.40
2022-12-07T08:21:13.390Z,15.40
2022-12-07T08:23:41.404Z,15.40
2022-12-07T08:26:16.672Z,15.40
2022-12-07T08:28:45.922Z,15.40
2022-12-07T08:31:17.390Z,15.50
2022-12-07T08:33:46.726Z,15.50
2022-12-07T08:36:15.631Z,15.60
2022-12-07T08:39:01.361Z,15.80
2022-12-07T08:41:31.849Z,15.90
2022-12-07T08:43:59.663Z,16.10
2022-12-07T08:46:35.469Z,16.20
2022-12-07T08:49:06.572Z,16.30
2022-12-07T08:51:34.678Z,16.40
2022-12-07T08:54:05.873Z,16.60
2022-12-07T08:56:34.062Z,16.60
2022-12-07T08:59:01.963Z,16.70
2022-12-07T09:01:32.119Z,16.80
2022-12-07T09:04:00.073Z,16.60
2022-12-07T09:06:28.323Z,16.40
2022-12-07T09:09:00.044Z,16.20
2022-12-07T09:11:29.007Z,16.10
2022-12-07T09:13:57.092Z,16.00
2022-12-07T09:16:25.012Z,16.00
2022-12-07T09:18:54.202Z,15.90
2022-12-07T09:21:22.026Z,15.80
2022-12-07T09:23:49.836Z,15.90
2022-12-07T09:26:17.780Z,15.90
2022-12-07T09:28:45.584Z,15.90
2022-12-07T09:31:28.719Z,15.90
2022-12-07T09:33:59.659Z,15.90
2022-12-07T09:36:28.763Z,15.90
2022-12-07T09:38:56.732Z,15.90
2022-12-07T09:41:26.220Z,15.90
2022-12-07T09:43:55.288Z,16.00
2022-12-07T09:46:23.496Z,16.00
2022-12-07T09:48:52.630Z,16.00
2022-12-07T09:51:25.755Z,16.10
2022-12-07T09:53:55.512Z,16.20
2022-12-07T09:56:24.389Z,16.20
2022-12-07T09:58:57.430Z,16.20
2022-12-07T10:01:25.307Z,16.30
2022-12-07T10:03:56.134Z,16.20
2022-12-07T10:06:25.541Z,16.30
2022-12-07T10:08:53.368Z,16.30
2022-12-07T10:11:21.246Z,16.30
2022-12-07T10:13:50.797Z,16.30
2022-12-07T10:16:39.571Z,16.20
2022-12-07T10:19:21.976Z,16.20
2022-12-07T10:22:06.533Z,16.20
2022-12-07T10:24:34.384Z,16.30
2022-12-07T10:27:02.466Z,16.50
2022-12-07T10:29:32.573Z,16.50
2022-12-07T10:32:02.608Z,16.40
2022-12-07T10:34:36.502Z,16.40
2022-12-07T10:37:19.472Z,16.30
2022-12-07T10:39:49.716Z,16.30
2022-12-07T10:42:22.064Z,16.30
2022-12-07T10:44:50.759Z,16.20
2022-12-07T10:47:33.465Z,16.20
2022-12-07T10:50:26.177Z,16.10
2022-12-07T10:53:09.110Z,16.10
2022-12-07T10:55:52.734Z,16.00
2022-12-07T10:58:37.572Z,15.90
2022-12-07T11:01:15.029Z,15.90
2022-12-07T11:04:04.976Z,15.90
2022-12-07T11:06:37.404Z,15.90
2022-12-07T11:10:11.366Z,15.90
2022-12-07T11:12:58.689Z,15.90
2022-12-07T11:15:30.713Z,16.00
2022-12-07T11:18:05.841Z,16.00
2022-12-07T11:20:47.488Z,16.10
2022-12-07T11:23:23.169Z,16.10
2022-12-07T11:26:02.348Z,16.10
2022-12-07T11:28:49.248Z,16.20
2022-12-07T11:34:20.911Z,16.20
2022-12-07T11:36:51.553Z,16.20
2022-12-07T11:39:27.677Z,16.20
2022-12-07T11:42:02.901Z,16.30
2022-12-07T11:44:35.761Z,16.30
2022-12-07T11:47:09.578Z,16.30
2022-12-07T11:49:45.179Z,16.30
2022-12-07T11:52:22.250Z,16.30
2022-12-07T11:54:54.516Z,16.30
2022-12-07T11:57:35.156Z,16.30
2022-12-07T12:00:06.311Z,16.30
2022-12-07T12:02:39.296Z,16.20
2022-12-07T12:05:17.123Z,16.20
2022-12-07T12:10:43.870Z,16.30
2022-12-07T12:16:42.100Z,16.20
2022-12-07T12:19:25.428Z,16.20
2022-12-07T12:21:58.729Z,16.30
2022-12-07T12:24:30.585Z,16.30
2022-12-07T12:27:05.042Z,16.30
2022-12-07T12:29:37.533Z,16.30
2022-12-07T12:32:15.262Z,16.20
2022-12-07T12:35:00.009Z,16.20
2022-12-07T12:37:46.321Z,16.20
2022-12-07T12:40:48.515Z,16.20
2022-12-07T12:43:57.918Z,16.20
2022-12-07T12:46:51.516Z,16.20
2022-12-07T12:50:01.179Z,16.20
2022-12-07T12:53:03.972Z,16.20
2022-12-07T12:56:13.832Z,16.20
2022-12-07T12:58:46.692Z,16.20
2022-12-07T13:01:54.442Z,16.20
2022-12-07T13:04:52.116Z,16.20
2022-12-07T13:07:56.030Z,16.10
2022-12-07T13:10:35.143Z,16.00
2022-12-07T13:13:26.175Z,16.00
2022-12-07T13:15:55.284Z,16.00
2022-12-07T13:18:36.378Z,16.00
2022-12-07T13:21:49.259Z,16.00
2022-12-07T13:24:20.366Z,15.90
2022-12-07T13:26:48.326Z,15.90
2022-12-07T13:29:17.659Z,15.90
2022-12-07T13:31:47.812Z,15.90
2022-12-07T13:34:33.553Z,15.90
2022-12-07T13:37:03.388Z,16.00
2022-12-07T13:39:35.734Z,16.00
2022-12-07T13:42:17.105Z,16.00
2022-12-07T13:44:44.908Z,16.10
2022-12-07T13:47:19.813Z,16.10
2022-12-07T13:49:53.739Z,16.10
2022-12-07T13:52:24.741Z,16.10
2022-12-07T13:55:00.783Z,16.10
2022-12-07T13:57:32.309Z,16.00
2022-12-07T14:00:00.858Z,16.00
2022-12-07T14:02:34.828Z,16.00
2022-12-07T14:05:11.421Z,16.00
2022-12-07T14:07:51.672Z,16.00
2022-12-07T14:10:30.950Z,16.00
2022-12-07T14:12:59.674Z,16.00
2022-12-07T14:15:31.413Z,16.00
2022-12-07T14:18:04.220Z,16.00
2022-12-07T14:20:33.795Z,16.00
2022-12-07T14:23:09.775Z,16.00
2022-12-07T14:25:51.415Z,16.00
2022-12-07T14:28:30.058Z,16.00
2022-12-07T14:30:58.008Z,16.00
2022-12-07T14:33:26.713Z,15.90
2022-12-07T14:35:56.035Z,15.90
2022-12-07T14:38:25.258Z,16.00
2022-12-07T14:40:55.463Z,16.00
2022-12-07T14:43:23.339Z,16.00
2022-12-07T14:45:51.202Z,16.00
2022-12-07T14:53:57.566Z,15.90
2022-12-07T14:56:28.629Z,15.90
2022-12-07T14:58:56.447Z,15.90
2022-12-07T15:01:24.277Z,15.90
2022-12-07T15:03:52.199Z,15.90
2022-12-07T15:06:20.431Z,15.90
2022-12-07T15:08:48.321Z,15.80
2022-12-07T15:11:17.319Z,15.80
2022-12-07T15:14:03.845Z,15.80
2022-12-07T15:16:52.322Z,15.90
2022-12-07T15:19:28.475Z,15.80
2022-12-07T15:21:57.872Z,15.80
2022-12-07T15:24:25.972Z,15.80
2022-12-07T15:26:54.151Z,15.80
2022-12-07T15:29:24.173Z,15.80
2022-12-07T15:31:57.368Z,15.80
2022-12-07T15:34:26.007Z,15.80
2022-12-07T15:36:53.912Z,15.80
2022-12-07T15:39:22.514Z,15.80
2022-12-07T15:41:50.336Z,15.80
2022-12-07T15:44:35.984Z,15.80
2022-12-07T15:47:06.251Z,15.80
2022-12-07T15:49:34.134Z,15.80
2022-12-07T15:52:01.959Z,15.80
2022-12-07T15:54:30.909Z,15.80
2022-12-07T15:56:58.770Z,15.80
2022-12-07T15:59:28.928Z,15.80
2022-12-07T16:01:57.155Z,15.80
2022-12-07T16:04:26.522Z,15.80
2022-12-07T16:06:54.336Z,15.80
2022-12-07T16:09:22.590Z,15.80
2022-12-07T16:11:51.048Z,15.80
2022-12-07T16:14:18.858Z,15.80
2022-12-07T16:16:46.688Z,15.80
2022-12-07T16:19:14.592Z,15.80
2022-12-07T16:21:44.053Z,15.80
2022-12-07T16:24:13.493Z,15.80
2022-12-07T16:26:44.956Z,15.80
2022-12-07T16:29:18.250Z,15.80
2022-12-07T16:31:46.157Z,15.80
2022-12-07T16:34:14.073Z,15.80
2022-12-07T16:39:31.045Z,15.70
2022-12-07T16:41:58.824Z,15.70
2022-12-07T16:44:26.811Z,15.70
2022-12-07T16:46:54.683Z,15.70
2022-12-07T16:49:24.791Z,15.70
2022-12-07T16:52:18.185Z,15.70
2022-12-07T16:54:42.629Z,15.70
2022-12-07T16:57:10.506Z,15.70
2022-12-07T16:59:38.309Z,15.70
2022-12-07T17:02:07.393Z,15.70
2022-12-07T17:04:35.726Z,15.70
2022-12-07T17:07:04.960Z,15.70
2022-12-07T17:09:32.959Z,15.80
2022-12-07T17:12:00.795Z,15.80
2022-12-07T17:14:46.064Z,15.80
2022-12-07T17:17:13.897Z,15.70
2022-12-07T17:19:41.721Z,15.80
2022-12-07T17:22:13.029Z,15.80
2022-12-07T17:24:41.330Z,15.80
2022-12-07T17:27:09.216Z,15.90
2022-12-07T17:29:37.249Z,15.80
2022-12-07T17:32:05.756Z,15.80
2022-12-07T17:34:33.854Z,15.80
2022-12-07T17:37:01.648Z,15.80
2022-12-07T17:39:31.317Z,15.80
2022-12-07T17:42:16.732Z,15.80
2022-12-07T17:44:44.599Z,15.80
2022-12-07T17:47:13.425Z,15.80
2022-12-07T17:49:41.384Z,15.80
2022-12-07T17:52:27.695Z,15.80
2022-12-07T17:54:56.824Z,15.70
2022-12-07T17:57:24.718Z,15.80
2022-12-07T17:59:52.692Z,15.80
2022-12-07T18:02:20.509Z,15.80
2022-12-07T18:04:48.311Z,15.80
2022-12-07T18:07:16.386Z,15.80
2022-12-07T18:09:44.280Z,15.80
2022-12-07T18:12:13.506Z,15.80
2022-12-07T18:14:41.322Z,15.80
2022-12-07T18:17:09.173Z,15.80
2022-12-07T18:19:37.281Z,15.80
2022-12-07T18:22:05.498Z,15.80
2022-12-07T18:24:37.048Z,15.80
2022-12-07T18:27:05.832Z,15.80
2022-12-07T18:29:35.094Z,15.80
2022-12-07T18:32:04.793Z,15.80
2022-12-07T18:34:33.072Z,15.80
2022-12-07T18:37:01.014Z,15.80
2022-12-07T18:39:33.726Z,15.90
2022-12-07T18:42:02.390Z,15.90
2022-12-07T18:46:59.801Z,15.70
2022-12-07T18:49:30.112Z,15.30
2022-12-07T18:51:57.908Z,15.30
2022-12-07T18:54:25.765Z,15.30
2022-12-07T18:56:55.413Z,15.20
2022-12-07T18:59:40.805Z,15.20
2022-12-07T19:02:11.746Z,15.20
2022-12-07T19:04:39.634Z,15.30
2022-12-07T19:07:07.441Z,15.20
2022-12-07T19:09:35.349Z,15.30
2022-12-07T19:12:05.255Z,15.30
2022-12-07T19:14:34.641Z,15.40
2022-12-07T19:17:05.760Z,15.40
2022-12-07T19:19:36.757Z,15.40
2022-12-07T19:22:05.653Z,15.30
2022-12-07T19:24:33.751Z,15.40
2022-12-07T19:27:01.710Z,15.40
2022-12-07T19:29:31.797Z,15.50
2022-12-07T19:32:00.037Z,15.50
2022-12-07T19:34:27.997Z,15.50
2022-12-07T19:36:57.281Z,15.50
2022-12-07T19:39:25.373Z,15.60
2022-12-07T19:44:25.218Z,15.50
2022-12-07T19:46:57.321Z,15.60
2022-12-07T19:49:30.704Z,15.50
2022-12-07T19:52:02.489Z,15.60
2022-12-07T19:54:32.207Z,15.60
2022-12-07T19:57:00.318Z,15.50
2022-12-07T19:59:30.299Z,15.50
2022-12-07T20:01:58.482Z,15.50
2022-12-07T20:04:28.093Z,15.50
2022-12-07T20:06:58.352Z,15.50
2022-12-07T20:09:27.737Z,15.50
2022-12-07T20:12:13.224Z,15.60
2022-12-07T20:14:41.121Z,15.60
2022-12-07T20:17:09.062Z,15.80
2022-12-07T20:19:37.743Z,15.70
2022-12-07T20:22:05.731Z,15.70
2022-12-07T20:24:36.110Z,15.50
2022-12-07T20:27:05.377Z,15.40
2022-12-07T20:29:33.951Z,15.40
2022-12-07T20:32:02.065Z,15.30
2022-12-07T20:34:30.287Z,15.20
2022-12-07T20:36:58.197Z,15.20
2022-12-07T20:39:26.145Z,15.20
2022-12-07T20:42:24.442Z,15.10
2022-12-07T20:44:52.291Z,15.10
2022-12-07T20:47:22.399Z,15.00
2022-12-07T20:49:50.363Z,15.10
2022-12-07T20:52:20.551Z,15.10
2022-12-07T20:54:48.366Z,15.10
2022-12-07T20:57:17.522Z,15.00
2022-12-07T20:59:45.337Z,15.00
2022-12-07T21:02:14.285Z,14.90
2022-12-07T21:04:42.763Z,15.00
2022-12-07T21:07:10.632Z,14.90
2022-12-07T21:09:38.605Z,14.90
2022-12-07T21:12:10.920Z,14.90
2022-12-07T21:14:42.072Z,14.80
2022-12-07T21:17:10.211Z,14.80
2022-12-07T21:19:38.859Z,14.90
2022-12-07T21:22:06.900Z,14.80
2022-12-07T21:24:34.787Z,14.70
2022-12-07T21:27:02.662Z,14.70
2022-12-07T21:29:43.353Z,14.70
2022-12-07T21:32:14.584Z,14.80
2022-12-07T21:34:42.528Z,14.70
2022-12-07T21:37:10.541Z,14.70
2022-12-07T21:39:38.400Z,14.70
2022-12-07T21:42:06.399Z,14.70
2022-12-07T21:44:35.554Z,14.80
2022-12-07T21:47:03.463Z,14.70
2022-12-07T21:49:35.316Z,14.80
2022-12-07T21:52:03.245Z,14.70
2022-12-07T21:54:31.142Z,14.70
2022-12-07T21:56:58.961Z,14.70
2022-12-07T21:59:26.772Z,14.70
2022-12-07T22:01:54.743Z,14.70
2022-12-07T22:04:24.625Z,14.70
2022-12-07T22:06:54.650Z,14.60
2022-12-07T22:09:23.400Z,14.70
2022-12-07T22:11:51.508Z,14.70
2022-12-07T22:14:37.096Z,14.80
2022-12-07T22:17:04.962Z,14.70
2022-12-07T22:19:32.825Z,14.70
2022-12-07T22:22:01.986Z,14.70
2022-12-07T22:24:29.849Z,14.70
2022-12-07T22:26:57.677Z,14.70
2022-12-07T22:29:26.519Z,14.80
2022-12-07T22:31:54.647Z,14.80
2022-12-07T22:34:22.860Z,14.70
2022-12-07T22:36:50.689Z,14.70
2022-12-07T22:39:19.838Z,14.80
2022-12-07T22:41:47.639Z,14.80
2022-12-07T22:44:15.448Z,14.80
2022-12-07T22:46:43.659Z,14.80
2022-12-07T22:49:11.716Z,14.70
2022-12-07T22:51:41.763Z,14.70
2022-12-07T22:54:12.062Z,14.70
2022-12-07T22:56:41.216Z,14.70
2022-12-07T22:59:09.360Z,14.70
2022-12-07T23:01:37.923Z,14.70
2022-12-07T23:04:06.042Z,14.70
2022-12-07T23:06:36.370Z,14.70
2022-12-07T23:09:07.304Z,14.80
2022-12-07T23:11:55.365Z,14.80
2022-12-07T23:14:27.650Z,14.70
2022-12-07T23:16:55.513Z,14.70
2022-12-07T23:19:23.329Z,14.70
2022-12-07T23:21:51.170Z,14.80
2022-12-07T23:24:19.189Z,14.80
2022-12-07T23:26:47.555Z,14.90
2022-12-07T23:29:18.064Z,14.70
2022-12-07T23:31:47.773Z,14.70
2022-12-07T23:34:15.989Z,14.80
2022-12-07T23:36:43.796Z,14.80
2022-12-07T23:39:12.484Z,14.80
2022-12-07T23:41:40.325Z,14.80
2022-12-07T23:44:08.394Z,14.80
2022-12-07T23:46:36.364Z,14.80
2022-12-07T23:49:06.584Z,14.80
2022-12-07T23:51:34.998Z,14.70
2022-12-07T23:54:03.113Z,14.70
2022-12-07T23:56:33.131Z,14.60
2022-12-07T23:59:02.363Z,14.60
